Weather History for Bad Axe, MI

Change the Weather History Date:

Wednesday, December 12, 2012

  Actual Average (KP58) Record (KP58)
Temperature  
Mean Temperature 32 °F -  
Max Temperature 38 °F 35 °F 46 °F (2001)
Min Temperature 27 °F 26 °F 8 °F (2013)
Degree Days  
Heating Degree Days 32    
Moisture  
Dew Point 26 °F    
Average Humidity 79    
Maximum Humidity 89    
Minimum Humidity 69    
Precipitation  
Precipitation 0.00 in - - ()
Sea Level Pressure  
Sea Level Pressure 30.23 in    
Wind  
Wind Speed 9 mph (SW)    
Max Wind Speed 15 mph    
Max Gust Speed 21 mph    
Visibility 10 miles    
Events Snow    
Averages and records for this station are not official NWS values.
T = Trace of Precipitation, MM = Missing Value Source: NWS Daily Summary

Daily Weather History Graph

Daily Weather History Graph

Search for Another Location

Airport:

Trip Planner

Search our weather history database for the weather conditions in past years. The results will help you decide how hot, cold, wet, or windy it might be!

Date:

Astronomy

Dec. 12, 2012 Rise Set
Actual Time 7:57 AM EST 4:54 PM EST
Civil Twilight 7:24 AM EST 5:27 PM EST
Nautical Twilight 6:47 AM EST 6:03 PM EST
Astronomical Twilight 6:12 AM EST 6:38 PM EST
Moon 6:59 AM EST (12/12) 4:31 PM EST (12/12)
Length of Visible Light 10h 03m
Length of Day
8h 57m
Waning Crescent, 1% of the Moon is Illuminated
Dec 12
Waning Crescent
Dec 13
New
Dec 20
First Quarter
Dec 28
Full
Jan 4
Last Quarter

Hourly Weather History & Observations

Time (EST) Temp. Windchill Dew Point Humidity Pressure Visibility Wind Dir Wind Speed Gust Speed Precip Events Conditions
12:14 AM 30.0 °F 20.5 °F 23.0 °F 75% 30.08 in 10.0 mi SW 11.5 mph 16.1 mph N/A   Overcast
12:35 AM 30.2 °F 20.2 °F 23.0 °F 75% 30.08 in 10.0 mi SSW 12.7 mph - N/A   Overcast
12:54 AM 30.2 °F 20.8 °F 23.0 °F 75% 30.08 in 10.0 mi SW 11.5 mph - N/A   Overcast
1:14 AM 30.2 °F 21.3 °F 23.0 °F 75% 30.08 in 10.0 mi SW 10.4 mph - N/A   Overcast
1:35 AM 30.4 °F 21.5 °F 23.4 °F 75% 30.09 in 10.0 mi SW 10.4 mph 17.3 mph N/A   Overcast
1:54 AM 30.7 °F 20.4 °F 23.7 °F 75% 30.09 in 10.0 mi SW 13.8 mph 20.7 mph N/A   Overcast
2:14 AM 30.7 °F 22.6 °F 23.9 °F 76% 30.10 in 10.0 mi SSW 9.2 mph - N/A   Overcast
2:35 AM 30.6 °F 21.8 °F 23.9 °F 76% 30.11 in 10.0 mi SW 10.4 mph - N/A   Overcast
2:54 AM 30.9 °F 22.2 °F 24.3 °F 76% 30.12 in 10.0 mi SSW 10.4 mph - N/A   Overcast
3:14 AM 30.7 °F 23.3 °F 24.4 °F 77% 30.12 in 10.0 mi SSW 8.1 mph - N/A   Overcast
3:35 AM 30.7 °F 22.6 °F 24.6 °F 78% 30.13 in 10.0 mi SW 9.2 mph - N/A   Overcast
3:54 AM 31.1 °F 22.4 °F 25.2 °F 79% 30.13 in 7.0 mi SW 10.4 mph 17.3 mph N/A Snow Light Snow
4:14 AM 30.9 °F 22.8 °F 26.2 °F 83% 30.13 in 5.0 mi SW 9.2 mph - N/A Snow Light Snow
4:35 AM 30.6 °F 23.1 °F 26.6 °F 85% 30.13 in 10.0 mi SSW 8.1 mph - N/A   Overcast
4:54 AM 30.7 °F 22.6 °F 26.6 °F 85% 30.13 in 10.0 mi SSW 9.2 mph - N/A   Overcast
5:14 AM 30.6 °F 22.4 °F 27.0 °F 86% 30.14 in 1.8 mi SSW 9.2 mph - N/A Snow Light Snow
5:35 AM 30.2 °F 20.8 °F 27.0 °F 88% 30.15 in 10.0 mi SSW 11.5 mph - N/A   Overcast
5:54 AM 29.7 °F 21.3 °F 26.6 °F 88% 30.15 in 10.0 mi SSW 9.2 mph - N/A   Overcast
6:15 AM 29.8 °F 21.5 °F 26.8 °F 88% 30.16 in 10.0 mi SW 9.2 mph - N/A   Overcast
6:34 AM 30.2 °F 22.6 °F 26.6 °F 86% 30.17 in 10.0 mi SSW 8.1 mph - N/A   Overcast
6:54 AM 29.7 °F 22.8 °F 26.2 °F 87% 30.17 in 10.0 mi SSW 6.9 mph - N/A   Overcast
7:15 AM 30.2 °F 22.6 °F 26.4 °F 86% 30.18 in 10.0 mi SSW 8.1 mph - N/A   Overcast
7:34 AM 30.0 °F 23.2 °F 26.1 °F 85% 30.18 in 10.0 mi SSW 6.9 mph - N/A   Overcast
7:54 AM 29.3 °F 21.5 °F 25.5 °F 86% 30.18 in 10.0 mi SSW 8.1 mph - N/A   Overcast
8:15 AM 29.5 °F 21.1 °F 26.1 °F 87% 30.19 in 10.0 mi SSW 9.2 mph - N/A   Overcast
8:34 AM 30.7 °F 24.1 °F 26.6 °F 85% 30.20 in 10.0 mi SW 6.9 mph - N/A   Overcast
8:54 AM 30.9 °F 24.3 °F 26.4 °F 83% 30.21 in 10.0 mi WSW 6.9 mph - N/A   Scattered Clouds
9:15 AM 31.6 °F 23.1 °F 26.8 °F 82% 30.22 in 10.0 mi SW 10.4 mph - N/A   Scattered Clouds
9:34 AM 32.0 °F 24.2 °F 27.5 °F 83% 30.23 in 10.0 mi WSW 9.2 mph - N/A   Mostly Cloudy
9:54 AM 32.5 °F 24.2 °F 28.0 °F 83% 30.24 in 10.0 mi WSW 10.4 mph - N/A   Overcast
10:15 AM 33.4 °F 25.4 °F 28.0 °F 81% 30.26 in 10.0 mi WSW 10.4 mph 17.3 mph N/A   Overcast
10:34 AM 33.8 °F 23.9 °F 27.9 °F 79% 30.27 in 10.0 mi WSW 15.0 mph 20.7 mph N/A   Overcast
10:55 AM 33.4 °F 26.6 °F 27.9 °F 80% 30.28 in 10.0 mi WSW 8.1 mph - N/A   Overcast
11:15 AM 34.0 °F 26.0 °F 28.2 °F 79% 30.28 in 10.0 mi WSW 10.4 mph - N/A   Overcast
11:34 AM 35.1 °F 27.4 °F 28.2 °F 76% 30.28 in 10.0 mi WSW 10.4 mph - N/A   Overcast
11:55 AM 36.0 °F 27.5 °F 28.2 °F 73% 30.28 in 10.0 mi WSW 12.7 mph - N/A   Mostly Cloudy
12:15 PM 36.0 °F 27.5 °F 27.9 °F 72% 30.28 in 10.0 mi WSW 12.7 mph 18.4 mph N/A   Overcast
12:34 PM 35.8 °F 27.3 °F 27.5 °F 72% 30.28 in 10.0 mi WSW 12.7 mph - N/A   Overcast
12:55 PM 36.7 °F 29.4 °F 28.0 °F 71% 30.27 in 10.0 mi WSW 10.4 mph - N/A   Overcast
1:15 PM 36.0 °F 28.5 °F 27.5 °F 71% 30.28 in 10.0 mi WSW 10.4 mph - N/A   Overcast
1:34 PM 36.5 °F 29.2 °F 27.5 °F 70% 30.28 in 10.0 mi WSW 10.4 mph - N/A   Overcast
1:55 PM 37.6 °F 30.5 °F 28.2 °F 69% 30.28 in 10.0 mi WSW 10.4 mph - N/A   Overcast
2:15 PM 37.9 °F 30.5 °F 28.9 °F 70% 30.28 in 10.0 mi West 11.5 mph - N/A   Scattered Clouds
2:34 PM 37.6 °F 31.6 °F 28.8 °F 70% 30.28 in 10.0 mi WSW 8.1 mph - N/A   Mostly Cloudy
2:55 PM 37.9 °F 32.7 °F 29.1 °F 71% 30.28 in 10.0 mi SW 6.9 mph - N/A   Scattered Clouds
3:15 PM 38.1 °F 34.6 °F 29.5 °F 71% 30.28 in 10.0 mi WSW 4.6 mph - N/A   Clear
3:34 PM 38.3 °F 33.2 °F 30.2 °F 73% 30.28 in 10.0 mi WSW 6.9 mph - N/A   Clear
3:55 PM 37.6 °F 32.3 °F 29.7 °F 73% 30.28 in 10.0 mi SW 6.9 mph - N/A   Clear
4:14 PM 36.7 °F 32.9 °F 29.3 °F 75% 30.28 in 10.0 mi SW 4.6 mph - N/A   Clear
4:35 PM 34.7 °F 31.8 °F 28.9 °F 79% 30.28 in 10.0 mi SSW 3.5 mph - N/A   Clear
4:55 PM 33.6 °F 30.6 °F 29.1 °F 84% 30.28 in 10.0 mi South 3.5 mph - N/A   Clear
5:14 PM 33.4 °F 30.4 °F 28.4 °F 82% 30.29 in 10.0 mi South 3.5 mph - N/A   Clear
5:35 PM 30.2 °F - 25.9 °F 84% 30.29 in 10.0 mi Calm Calm - N/A   Clear
5:54 PM 29.3 °F - 25.5 °F 86% 30.29 in 10.0 mi Calm Calm - N/A   Clear
6:15 PM 28.6 °F 23.5 °F 25.5 °F 88% 30.29 in 10.0 mi South 4.6 mph - N/A   Clear
6:35 PM 29.7 °F - 26.4 °F 88% 30.29 in 10.0 mi Calm Calm - N/A   Clear
6:54 PM 27.1 °F 23.2 °F 24.3 °F 89% 30.29 in 10.0 mi SSE 3.5 mph - N/A   Clear
7:15 PM 28.0 °F 22.8 °F 25.2 °F 89% 30.30 in 10.0 mi South 4.6 mph - N/A   Clear
7:34 PM 31.5 °F 26.8 °F 25.9 °F 80% 30.30 in 10.0 mi SSW 4.6 mph - N/A   Clear
7:55 PM 32.4 °F 26.0 °F 25.7 °F 76% 30.30 in 10.0 mi SSW 6.9 mph - N/A   Clear
8:15 PM 32.2 °F 25.0 °F 25.7 °F 77% 30.30 in 10.0 mi SSW 8.1 mph - N/A   Clear
8:34 PM 32.7 °F 25.7 °F 25.5 °F 75% 30.31 in 10.0 mi SSW 8.1 mph - N/A   Clear
8:55 PM 32.2 °F 25.8 °F 24.8 °F 74% 30.31 in 10.0 mi SSW 6.9 mph - N/A   Clear
9:15 PM 31.3 °F 23.9 °F 24.8 °F 77% 30.31 in 10.0 mi South 8.1 mph - N/A   Clear
9:34 PM 32.0 °F 24.2 °F 25.2 °F 76% 30.32 in 10.0 mi SSW 9.2 mph - N/A   Clear
9:55 PM 32.4 °F 24.0 °F 25.3 °F 75% 30.31 in 10.0 mi SSW 10.4 mph - N/A   Clear
10:35 PM 32.0 °F 24.8 °F 25.3 °F 76% 30.31 in 10.0 mi SSW 8.1 mph - N/A   Clear
10:54 PM 32.0 °F 23.6 °F 25.5 °F 77% 30.32 in 10.0 mi SSW 10.4 mph - N/A   Clear
11:14 PM 32.0 °F 23.6 °F 25.7 °F 78% 30.32 in 10.0 mi SSW 10.4 mph - N/A   Clear
11:35 PM 32.0 °F 24.2 °F 25.7 °F 78% 30.32 in 10.0 mi SSW 9.2 mph - N/A   Clear
11:54 PM 32.0 °F 23.6 °F 25.7 °F 78% 30.32 in 10.0 mi SSW 10.4 mph - N/A   Clear